sensor_id;sensor_type;location;lat;lon;timestamp;temperature;humidity
20459;DHT22;10388;52.314;7.938;2022-11-15T00:00:19;7.60;99.90
20459;DHT22;10388;52.314;7.938;2022-11-15T00:02:51;7.60;99.90
20459;DHT22;10388;52.314;7.938;2022-11-15T00:05:22;7.60;99.90
20459;DHT22;10388;52.314;7.938;2022-11-15T00:07:52;7.70;99.90
20459;DHT22;10388;52.314;7.938;2022-11-15T00:10:23;7.60;99.90
20459;DHT22;10388;52.314;7.938;2022-11-15T00:12:53;7.70;99.90
20459;DHT22;10388;52.314;7.938;2022-11-15T00:15:24;7.70;99.90
20459;DHT22;10388;52.314;7.938;2022-11-15T00:17:54;7.70;99.90
20459;DHT22;10388;52.314;7.938;2022-11-15T00:20:25;7.70;99.90
20459;DHT22;10388;52.314;7.938;2022-11-15T00:22:55;7.70;99.90
20459;DHT22;10388;52.314;7.938;2022-11-15T00:25:26;7.70;99.90
20459;DHT22;10388;52.314;7.938;2022-11-15T00:27:58;7.80;99.90
20459;DHT22;10388;52.314;7.938;2022-11-15T00:30:29;7.80;99.90
20459;DHT22;10388;52.314;7.938;2022-11-15T00:33:04;7.80;99.90
20459;DHT22;10388;52.314;7.938;2022-11-15T00:35:35;7.90;99.90
20459;DHT22;10388;52.314;7.938;2022-11-15T00:38:06;7.90;99.90
20459;DHT22;10388;52.314;7.938;2022-11-15T00:40:36;8.00;99.90
20459;DHT22;10388;52.314;7.938;2022-11-15T00:43:07;8.00;99.90
20459;DHT22;10388;52.314;7.938;2022-11-15T00:45:37;8.10;99.90
20459;DHT22;10388;52.314;7.938;2022-11-15T00:48:09;8.20;99.90
20459;DHT22;10388;52.314;7.938;2022-11-15T00:50:40;8.20;99.90
20459;DHT22;10388;52.314;7.938;2022-11-15T00:53:10;8.20;99.90
20459;DHT22;10388;52.314;7.938;2022-11-15T00:55:41;8.20;99.90
20459;DHT22;10388;52.314;7.938;2022-11-15T00:58:11;8.20;99.90
20459;DHT22;10388;52.314;7.938;2022-11-15T01:01:17;8.30;99.90
20459;DHT22;10388;52.314;7.938;2022-11-15T01:03:48;8.30;99.90
20459;DHT22;10388;52.314;7.938;2022-11-15T01:09:17;8.30;99.90
20459;DHT22;10388;52.314;7.938;2022-11-15T01:11:47;8.30;99.90
20459;DHT22;10388;52.314;7.938;2022-11-15T01:39:24;8.60;99.90
20459;DHT22;10388;52.314;7.938;2022-11-15T01:52:59;8.60;99.90
20459;DHT22;10388;52.314;7.938;2022-11-15T01:58:58;8.60;99.90
20459;DHT22;10388;52.314;7.938;2022-11-15T02:01:33;8.60;99.90
20459;DHT22;10388;52.314;7.938;2022-11-15T02:04:13;8.70;99.90
20459;DHT22;10388;52.314;7.938;2022-11-15T02:06:46;8.70;99.90
20459;DHT22;10388;52.314;7.938;2022-11-15T02:09:17;8.70;99.90
20459;DHT22;10388;52.314;7.938;2022-11-15T02:11:48;8.70;99.90
20459;DHT22;10388;52.314;7.938;2022-11-15T02:14:20;8.70;99.90
20459;DHT22;10388;52.314;7.938;2022-11-15T02:25:24;8.90;99.90
20459;DHT22;10388;52.314;7.938;2022-11-15T02:37:07;8.90;99.90
20459;DHT22;10388;52.314;7.938;2022-11-15T02:40:01;9.00;99.90
20459;DHT22;10388;52.314;7.938;2022-11-15T02:42:39;9.00;99.90
20459;DHT22;10388;52.314;7.938;2022-11-15T02:45:33;9.00;99.90
20459;DHT22;10388;52.314;7.938;2022-11-15T02:48:07;9.20;99.90
20459;DHT22;10388;52.314;7.938;2022-11-15T02:50:39;9.20;99.90
20459;DHT22;10388;52.314;7.938;2022-11-15T02:53:10;9.20;99.90
20459;DHT22;10388;52.314;7.938;2022-11-15T02:55:46;9.20;99.90
20459;DHT22;10388;52.314;7.938;2022-11-15T03:06:50;9.30;99.90
20459;DHT22;10388;52.314;7.938;2022-11-15T03:09:42;9.40;99.90
20459;DHT22;10388;52.314;7.938;2022-11-15T03:12:31;9.40;99.90
20459;DHT22;10388;52.314;7.938;2022-11-15T03:15:29;9.40;99.90
20459;DHT22;10388;52.314;7.938;2022-11-15T03:18:33;9.40;99.90
20459;DHT22;10388;52.314;7.938;2022-11-15T03:21:07;9.40;99.90
20459;DHT22;10388;52.314;7.938;2022-11-15T03:23:40;9.50;99.90
20459;DHT22;10388;52.314;7.938;2022-11-15T03:26:13;9.50;99.90
20459;DHT22;10388;52.314;7.938;2022-11-15T03:28:55;9.60;99.90
20459;DHT22;10388;52.314;7.938;2022-11-15T03:31:30;9.50;99.90
20459;DHT22;10388;52.314;7.938;2022-11-15T03:34:31;9.60;99.90
20459;DHT22;10388;52.314;7.938;2022-11-15T03:37:02;9.60;99.90
20459;DHT22;10388;52.314;7.938;2022-11-15T03:39:34;9.60;99.90
20459;DHT22;10388;52.314;7.938;2022-11-15T03:42:27;9.60;99.90
20459;DHT22;10388;52.314;7.938;2022-11-15T03:47:51;9.70;99.90
20459;DHT22;10388;52.314;7.938;2022-11-15T03:50:24;9.80;99.90
20459;DHT22;10388;52.314;7.938;2022-11-15T03:52:55;9.70;99.90
20459;DHT22;10388;52.314;7.938;2022-11-15T03:55:26;9.80;99.90
20459;DHT22;10388;52.314;7.938;2022-11-15T03:58:00;9.80;99.90
20459;DHT22;10388;52.314;7.938;2022-11-15T04:00:31;9.80;99.90
20459;DHT22;10388;52.314;7.938;2022-11-15T04:03:01;9.90;99.90
20459;DHT22;10388;52.314;7.938;2022-11-15T04:05:32;9.90;99.90
20459;DHT22;10388;52.314;7.938;2022-11-15T04:08:03;10.00;99.90
20459;DHT22;10388;52.314;7.938;2022-11-15T04:10:33;10.10;99.90
20459;DHT22;10388;52.314;7.938;2022-11-15T04:13:04;10.10;99.90
20459;DHT22;10388;52.314;7.938;2022-11-15T04:15:35;10.10;99.90
20459;DHT22;10388;52.314;7.938;2022-11-15T04:18:06;10.10;99.90
20459;DHT22;10388;52.314;7.938;2022-11-15T04:20:36;10.10;99.90
20459;DHT22;10388;52.314;7.938;2022-11-15T04:23:25;10.10;99.90
20459;DHT22;10388;52.314;7.938;2022-11-15T04:26:18;10.20;99.90
20459;DHT22;10388;52.314;7.938;2022-11-15T04:28:49;10.20;99.90
20459;DHT22;10388;52.314;7.938;2022-11-15T04:31:38;10.20;99.90
20459;DHT22;10388;52.314;7.938;2022-11-15T04:34:08;10.30;99.90
20459;DHT22;10388;52.314;7.938;2022-11-15T04:36:39;10.30;99.90
20459;DHT22;10388;52.314;7.938;2022-11-15T04:39:28;10.30;99.90
20459;DHT22;10388;52.314;7.938;2022-11-15T04:42:20;10.30;99.90
20459;DHT22;10388;52.314;7.938;2022-11-15T04:44:51;10.30;99.90
20459;DHT22;10388;52.314;7.938;2022-11-15T04:47:21;10.30;99.90
20459;DHT22;10388;52.314;7.938;2022-11-15T04:49:52;10.40;99.90
20459;DHT22;10388;52.314;7.938;2022-11-15T04:52:22;10.40;99.90
20459;DHT22;10388;52.314;7.938;2022-11-15T04:54:53;10.40;99.90
20459;DHT22;10388;52.314;7.938;2022-11-15T04:57:23;10.50;99.90
20459;DHT22;10388;52.314;7.938;2022-11-15T04:59:54;10.50;99.90
20459;DHT22;10388;52.314;7.938;2022-11-15T05:02:25;10.50;99.90
20459;DHT22;10388;52.314;7.938;2022-11-15T05:05:15;10.50;99.90
20459;DHT22;10388;52.314;7.938;2022-11-15T05:07:46;10.50;99.90
20459;DHT22;10388;52.314;7.938;2022-11-15T05:10:17;10.50;99.90
20459;DHT22;10388;52.314;7.938;2022-11-15T05:12:47;10.50;99.90
20459;DHT22;10388;52.314;7.938;2022-11-15T05:15:18;10.50;99.90
20459;DHT22;10388;52.314;7.938;2022-11-15T05:17:48;10.40;99.90
20459;DHT22;10388;52.314;7.938;2022-11-15T05:20:19;10.50;99.90
20459;DHT22;10388;52.314;7.938;2022-11-15T05:22:49;10.40;99.90
20459;DHT22;10388;52.314;7.938;2022-11-15T05:25:20;10.40;99.90
20459;DHT22;10388;52.314;7.938;2022-11-15T05:27:51;10.40;99.90
20459;DHT22;10388;52.314;7.938;2022-11-15T05:30:22;10.40;99.90
20459;DHT22;10388;52.314;7.938;2022-11-15T05:32:53;10.40;99.90
20459;DHT22;10388;52.314;7.938;2022-11-15T05:35:38;10.50;99.90
20459;DHT22;10388;52.314;7.938;2022-11-15T05:38:09;10.50;99.90
20459;DHT22;10388;52.314;7.938;2022-11-15T05:40:40;10.60;99.90
20459;DHT22;10388;52.314;7.938;2022-11-15T05:43:11;10.60;99.90
20459;DHT22;10388;52.314;7.938;2022-11-15T05:45:41;10.60;99.90
20459;DHT22;10388;52.314;7.938;2022-11-15T05:48:12;10.50;99.90
20459;DHT22;10388;52.314;7.938;2022-11-15T05:50:46;10.60;99.90
20459;DHT22;10388;52.314;7.938;2022-11-15T05:53:19;10.60;99.90
20459;DHT22;10388;52.314;7.938;2022-11-15T05:55:51;10.60;99.90
20459;DHT22;10388;52.314;7.938;2022-11-15T05:58:22;10.60;99.90
20459;DHT22;10388;52.314;7.938;2022-11-15T06:00:54;10.60;99.90
20459;DHT22;10388;52.314;7.938;2022-11-15T06:03:24;10.60;99.90
20459;DHT22;10388;52.314;7.938;2022-11-15T06:05:56;10.60;99.90
20459;DHT22;10388;52.314;7.938;2022-11-15T06:08:27;10.70;99.90
20459;DHT22;10388;52.314;7.938;2022-11-15T06:11:04;10.70;99.90
20459;DHT22;10388;52.314;7.938;2022-11-15T06:13:35;10.70;99.90
20459;DHT22;10388;52.314;7.938;2022-11-15T06:16:05;10.70;99.90
20459;DHT22;10388;52.314;7.938;2022-11-15T06:18:36;10.70;99.90
20459;DHT22;10388;52.314;7.938;2022-11-15T06:21:07;10.70;99.90
20459;DHT22;10388;52.314;7.938;2022-11-15T06:23:38;10.70;99.90
20459;DHT22;10388;52.314;7.938;2022-11-15T06:26:08;10.80;99.90
20459;DHT22;10388;52.314;7.938;2022-11-15T06:28:39;10.80;99.90
20459;DHT22;10388;52.314;7.938;2022-11-15T06:31:10;10.90;99.90
20459;DHT22;10388;52.314;7.938;2022-11-15T06:33:41;10.90;99.90
20459;DHT22;10388;52.314;7.938;2022-11-15T06:36:13;10.90;99.90
20459;DHT22;10388;52.314;7.938;2022-11-15T06:38:47;10.90;99.90
20459;DHT22;10388;52.314;7.938;2022-11-15T06:41:18;10.90;99.90
20459;DHT22;10388;52.314;7.938;2022-11-15T06:43:48;11.00;99.90
20459;DHT22;10388;52.314;7.938;2022-11-15T06:46:19;11.00;99.90
20459;DHT22;10388;52.314;7.938;2022-11-15T06:48:53;10.90;99.90
20459;DHT22;10388;52.314;7.938;2022-11-15T06:51:24;10.90;99.90
20459;DHT22;10388;52.314;7.938;2022-11-15T06:53:54;11.00;99.90
20459;DHT22;10388;52.314;7.938;2022-11-15T06:56:25;10.90;99.90
20459;DHT22;10388;52.314;7.938;2022-11-15T06:58:55;10.90;99.90
20459;DHT22;10388;52.314;7.938;2022-11-15T07:01:26;10.80;99.90
20459;DHT22;10388;52.314;7.938;2022-11-15T07:03:56;10.80;99.90
20459;DHT22;10388;52.314;7.938;2022-11-15T07:06:27;10.90;99.90
20459;DHT22;10388;52.314;7.938;2022-11-15T07:08:57;10.90;99.90
20459;DHT22;10388;52.314;7.938;2022-11-15T07:11:28;11.00;99.90
20459;DHT22;10388;52.314;7.938;2022-11-15T07:13:59;11.00;99.90
20459;DHT22;10388;52.314;7.938;2022-11-15T07:16:30;11.00;99.90
20459;DHT22;10388;52.314;7.938;2022-11-15T07:19:01;11.00;99.90
20459;DHT22;10388;52.314;7.938;2022-11-15T07:21:32;11.00;99.90
20459;DHT22;10388;52.314;7.938;2022-11-15T07:24:03;11.10;99.90
20459;DHT22;10388;52.314;7.938;2022-11-15T07:26:34;11.10;99.90
20459;DHT22;10388;52.314;7.938;2022-11-15T07:29:04;11.00;99.90
20459;DHT22;10388;52.314;7.938;2022-11-15T07:31:35;11.10;99.90
20459;DHT22;10388;52.314;7.938;2022-11-15T07:34:05;11.00;99.90
20459;DHT22;10388;52.314;7.938;2022-11-15T07:36:36;11.10;99.90
20459;DHT22;10388;52.314;7.938;2022-11-15T07:39:07;11.10;99.90
20459;DHT22;10388;52.314;7.938;2022-11-15T07:41:37;11.10;99.90
20459;DHT22;10388;52.314;7.938;2022-11-15T07:44:09;11.10;99.90
20459;DHT22;10388;52.314;7.938;2022-11-15T07:46:39;11.10;99.90
20459;DHT22;10388;52.314;7.938;2022-11-15T07:49:10;11.20;99.90
20459;DHT22;10388;52.314;7.938;2022-11-15T07:51:40;11.20;99.90
20459;DHT22;10388;52.314;7.938;2022-11-15T07:54:11;11.20;99.90
20459;DHT22;10388;52.314;7.938;2022-11-15T07:56:41;11.20;99.90
20459;DHT22;10388;52.314;7.938;2022-11-15T07:59:12;11.30;99.90
20459;DHT22;10388;52.314;7.938;2022-11-15T08:01:42;11.30;99.90
20459;DHT22;10388;52.314;7.938;2022-11-15T08:04:13;11.30;99.90
20459;DHT22;10388;52.314;7.938;2022-11-15T08:06:43;11.30;99.90
20459;DHT22;10388;52.314;7.938;2022-11-15T08:09:14;11.30;99.90
20459;DHT22;10388;52.314;7.938;2022-11-15T08:11:44;11.40;99.90
20459;DHT22;10388;52.314;7.938;2022-11-15T08:14:15;11.40;99.90
20459;DHT22;10388;52.314;7.938;2022-11-15T08:16:45;11.50;99.90
20459;DHT22;10388;52.314;7.938;2022-11-15T08:19:16;11.50;99.90
20459;DHT22;10388;52.314;7.938;2022-11-15T08:21:47;11.60;99.90
20459;DHT22;10388;52.314;7.938;2022-11-15T08:24:17;11.60;99.90
20459;DHT22;10388;52.314;7.938;2022-11-15T08:26:48;11.60;99.90
20459;DHT22;10388;52.314;7.938;2022-11-15T08:29:18;11.60;99.90
20459;DHT22;10388;52.314;7.938;2022-11-15T08:31:49;11.60;99.90
20459;DHT22;10388;52.314;7.938;2022-11-15T08:34:19;11.60;99.90
20459;DHT22;10388;52.314;7.938;2022-11-15T08:36:50;11.60;99.90
20459;DHT22;10388;52.314;7.938;2022-11-15T08:39:20;11.60;99.90
20459;DHT22;10388;52.314;7.938;2022-11-15T08:41:51;11.70;99.90
20459;DHT22;10388;52.314;7.938;2022-11-15T08:44:22;11.70;99.90
20459;DHT22;10388;52.314;7.938;2022-11-15T08:46:52;11.70;99.90
20459;DHT22;10388;52.314;7.938;2022-11-15T08:49:23;11.70;99.90
20459;DHT22;10388;52.314;7.938;2022-11-15T08:51:53;11.80;99.90
20459;DHT22;10388;52.314;7.938;2022-11-15T08:54:24;11.80;99.90
20459;DHT22;10388;52.314;7.938;2022-11-15T08:56:54;11.80;99.90
20459;DHT22;10388;52.314;7.938;2022-11-15T08:59:25;11.80;99.90
20459;DHT22;10388;52.314;7.938;2022-11-15T09:01:55;11.90;99.90
20459;DHT22;10388;52.314;7.938;2022-11-15T09:04:26;11.90;99.90
20459;DHT22;10388;52.314;7.938;2022-11-15T09:06:57;11.90;99.90
20459;DHT22;10388;52.314;7.938;2022-11-15T09:09:27;11.90;99.90
20459;DHT22;10388;52.314;7.938;2022-11-15T09:11:58;11.90;99.90
20459;DHT22;10388;52.314;7.938;2022-11-15T09:14:28;11.90;99.90
20459;DHT22;10388;52.314;7.938;2022-11-15T09:16:59;11.90;99.90
20459;DHT22;10388;52.314;7.938;2022-11-15T09:19:30;12.00;99.90
20459;DHT22;10388;52.314;7.938;2022-11-15T09:22:01;11.90;99.90
20459;DHT22;10388;52.314;7.938;2022-11-15T09:24:31;12.00;99.90
20459;DHT22;10388;52.314;7.938;2022-11-15T09:27:02;12.00;99.90
20459;DHT22;10388;52.314;7.938;2022-11-15T09:29:33;12.10;99.90
20459;DHT22;10388;52.314;7.938;2022-11-15T09:32:04;12.10;99.90
20459;DHT22;10388;52.314;7.938;2022-11-15T09:34:34;12.20;99.90
20459;DHT22;10388;52.314;7.938;2022-11-15T09:37:05;12.30;99.90
20459;DHT22;10388;52.314;7.938;2022-11-15T09:39:35;12.40;99.90
20459;DHT22;10388;52.314;7.938;2022-11-15T09:47:54;12.60;99.90
20459;DHT22;10388;52.314;7.938;2022-11-15T09:50:48;12.60;99.90
20459;DHT22;10388;52.314;7.938;2022-11-15T09:53:26;12.60;99.90
20459;DHT22;10388;52.314;7.938;2022-11-15T09:56:03;12.60;99.90
20459;DHT22;10388;52.314;7.938;2022-11-15T09:58:42;12.70;99.90
20459;DHT22;10388;52.314;7.938;2022-11-15T10:01:42;12.80;99.90
20459;DHT22;10388;52.314;7.938;2022-11-15T10:04:14;12.90;99.90
20459;DHT22;10388;52.314;7.938;2022-11-15T10:06:52;12.90;99.90
20459;DHT22;10388;52.314;7.938;2022-11-15T10:09:29;12.90;99.90
20459;DHT22;10388;52.314;7.938;2022-11-15T10:12:02;12.90;99.90
20459;DHT22;10388;52.314;7.938;2022-11-15T10:14:32;12.90;99.90
20459;DHT22;10388;52.314;7.938;2022-11-15T10:22:44;13.10;99.90
20459;DHT22;10388;52.314;7.938;2022-11-15T10:25:23;13.20;99.90
20459;DHT22;10388;52.314;7.938;2022-11-15T10:27:56;13.20;99.90
20459;DHT22;10388;52.314;7.938;2022-11-15T10:30:34;13.20;99.90
20459;DHT22;10388;52.314;7.938;2022-11-15T10:33:35;13.20;99.90
20459;DHT22;10388;52.314;7.938;2022-11-15T10:49:25;13.20;99.90
20459;DHT22;10388;52.314;7.938;2022-11-15T10:52:16;13.20;99.90
20459;DHT22;10388;52.314;7.938;2022-11-15T10:57:33;13.20;99.90
20459;DHT22;10388;52.314;7.938;2022-11-15T11:00:27;13.20;99.90
20459;DHT22;10388;52.314;7.938;2022-11-15T11:03:01;13.30;99.90
20459;DHT22;10388;52.314;7.938;2022-11-15T11:05:33;13.40;99.90
20459;DHT22;10388;52.314;7.938;2022-11-15T11:08:18;13.60;99.90
20459;DHT22;10388;52.314;7.938;2022-11-15T11:10:54;13.60;99.90
20459;DHT22;10388;52.314;7.938;2022-11-15T11:13:28;13.60;99.90
20459;DHT22;10388;52.314;7.938;2022-11-15T11:18:58;13.70;99.90
20459;DHT22;10388;52.314;7.938;2022-11-15T11:21:42;13.60;99.90
20459;DHT22;10388;52.314;7.938;2022-11-15T11:30:16;13.90;99.90
20459;DHT22;10388;52.314;7.938;2022-11-15T11:47:23;13.80;99.90
20459;DHT22;10388;52.314;7.938;2022-11-15T11:50:01;14.00;99.90
20459;DHT22;10388;52.314;7.938;2022-11-15T11:53:04;14.20;99.90
20459;DHT22;10388;52.314;7.938;2022-11-15T12:07:25;13.70;99.90
20459;DHT22;10388;52.314;7.938;2022-11-15T12:10:04;13.80;99.90
20459;DHT22;10388;52.314;7.938;2022-11-15T12:12:38;13.90;99.90
20459;DHT22;10388;52.314;7.938;2022-11-15T12:17:41;14.00;99.90
20459;DHT22;10388;52.314;7.938;2022-11-15T12:20:23;14.10;99.90
20459;DHT22;10388;52.314;7.938;2022-11-15T12:22:58;14.20;99.90
20459;DHT22;10388;52.314;7.938;2022-11-15T12:25:31;14.20;99.90
20459;DHT22;10388;52.314;7.938;2022-11-15T12:28:22;14.10;99.90
20459;DHT22;10388;52.314;7.938;2022-11-15T12:31:13;14.00;99.90
20459;DHT22;10388;52.314;7.938;2022-11-15T12:33:47;14.00;99.90
20459;DHT22;10388;52.314;7.938;2022-11-15T12:39:03;14.10;99.90
20459;DHT22;10388;52.314;7.938;2022-11-15T12:41:37;14.10;99.90
20459;DHT22;10388;52.314;7.938;2022-11-15T12:44:13;14.10;99.90
20459;DHT22;10388;52.314;7.938;2022-11-15T13:02:30;14.10;99.90
20459;DHT22;10388;52.314;7.938;2022-11-15T13:07:57;14.00;99.90
20459;DHT22;10388;52.314;7.938;2022-11-15T13:10:37;14.00;99.90
20459;DHT22;10388;52.314;7.938;2022-11-15T13:13:41;13.90;99.90
20459;DHT22;10388;52.314;7.938;2022-11-15T13:15:59;13.90;99.90
20459;DHT22;10388;52.314;7.938;2022-11-15T13:18:37;13.80;99.90
20459;DHT22;10388;52.314;7.938;2022-11-15T13:21:21;13.80;99.90
20459;DHT22;10388;52.314;7.938;2022-11-15T13:24:16;13.80;99.90
20459;DHT22;10388;52.314;7.938;2022-11-15T13:26:47;13.70;99.90
20459;DHT22;10388;52.314;7.938;2022-11-15T13:29:19;13.70;99.90
20459;DHT22;10388;52.314;7.938;2022-11-15T13:31:50;13.70;99.90
20459;DHT22;10388;52.314;7.938;2022-11-15T13:34:26;13.70;99.90
20459;DHT22;10388;52.314;7.938;2022-11-15T13:36:57;13.70;99.90
20459;DHT22;10388;52.314;7.938;2022-11-15T13:39:30;13.70;99.90
20459;DHT22;10388;52.314;7.938;2022-11-15T13:42:02;13.70;99.90
20459;DHT22;10388;52.314;7.938;2022-11-15T13:44:33;13.60;99.90
20459;DHT22;10388;52.314;7.938;2022-11-15T13:47:15;13.60;99.90
20459;DHT22;10388;52.314;7.938;2022-11-15T13:49:46;13.60;99.90
20459;DHT22;10388;52.314;7.938;2022-11-15T13:52:16;13.50;99.90
20459;DHT22;10388;52.314;7.938;2022-11-15T13:55:04;13.50;99.90
20459;DHT22;10388;52.314;7.938;2022-11-15T13:57:48;13.50;99.90
20459;DHT22;10388;52.314;7.938;2022-11-15T14:00:39;13.50;99.90
20459;DHT22;10388;52.314;7.938;2022-11-15T14:03:23;13.50;99.90
20459;DHT22;10388;52.314;7.938;2022-11-15T14:09:03;13.40;99.90
20459;DHT22;10388;52.314;7.938;2022-11-15T14:11:33;13.40;99.90
20459;DHT22;10388;52.314;7.938;2022-11-15T14:16:39;13.30;99.90
20459;DHT22;10388;52.314;7.938;2022-11-15T14:19:12;13.20;99.90
20459;DHT22;10388;52.314;7.938;2022-11-15T14:22:17;13.20;99.90
20459;DHT22;10388;52.314;7.938;2022-11-15T14:30:34;13.00;99.90
20459;DHT22;10388;52.314;7.938;2022-11-15T14:33:24;13.00;99.90
20459;DHT22;10388;52.314;7.938;2022-11-15T14:36:01;12.90;99.90
20459;DHT22;10388;52.314;7.938;2022-11-15T14:38:32;12.80;99.90
20459;DHT22;10388;52.314;7.938;2022-11-15T14:41:03;12.70;99.90
20459;DHT22;10388;52.314;7.938;2022-11-15T14:43:33;12.60;99.90
20459;DHT22;10388;52.314;7.938;2022-11-15T14:46:04;12.70;99.90
20459;DHT22;10388;52.314;7.938;2022-11-15T14:48:34;12.50;99.90
20459;DHT22;10388;52.314;7.938;2022-11-15T14:51:13;12.50;99.90
20459;DHT22;10388;52.314;7.938;2022-11-15T14:53:45;12.50;99.90
20459;DHT22;10388;52.314;7.938;2022-11-15T14:56:15;12.50;99.90
20459;DHT22;10388;52.314;7.938;2022-11-15T14:58:49;12.40;99.90
20459;DHT22;10388;52.314;7.938;2022-11-15T15:01:25;12.30;99.90
20459;DHT22;10388;52.314;7.938;2022-11-15T15:03:56;12.30;99.90
20459;DHT22;10388;52.314;7.938;2022-11-15T15:06:28;12.20;99.90
20459;DHT22;10388;52.314;7.938;2022-11-15T15:09:00;12.10;99.90
20459;DHT22;10388;52.314;7.938;2022-11-15T15:11:31;12.10;99.90
20459;DHT22;10388;52.314;7.938;2022-11-15T15:14:02;12.00;99.90
20459;DHT22;10388;52.314;7.938;2022-11-15T15:16:32;12.00;99.90
20459;DHT22;10388;52.314;7.938;2022-11-15T15:19:03;11.90;99.90
20459;DHT22;10388;52.314;7.938;2022-11-15T15:21:34;11.80;99.90
20459;DHT22;10388;52.314;7.938;2022-11-15T15:24:05;11.80;99.90
20459;DHT22;10388;52.314;7.938;2022-11-15T15:26:35;11.80;99.90
20459;DHT22;10388;52.314;7.938;2022-11-15T15:29:06;11.70;99.90
20459;DHT22;10388;52.314;7.938;2022-11-15T15:31:39;11.70;99.90
20459;DHT22;10388;52.314;7.938;2022-11-15T15:34:09;11.60;99.90
20459;DHT22;10388;52.314;7.938;2022-11-15T15:36:40;11.60;99.90
20459;DHT22;10388;52.314;7.938;2022-11-15T15:39:10;11.50;99.90
20459;DHT22;10388;52.314;7.938;2022-11-15T15:41:42;11.50;99.90
20459;DHT22;10388;52.314;7.938;2022-11-15T15:44:12;11.40;99.90
20459;DHT22;10388;52.314;7.938;2022-11-15T15:46:43;11.30;99.90
20459;DHT22;10388;52.314;7.938;2022-11-15T15:49:13;11.30;99.90
20459;DHT22;10388;52.314;7.938;2022-11-15T15:51:44;11.30;99.90
20459;DHT22;10388;52.314;7.938;2022-11-15T15:54:14;11.20;99.90
20459;DHT22;10388;52.314;7.938;2022-11-15T15:56:45;11.10;99.90
20459;DHT22;10388;52.314;7.938;2022-11-15T15:59:15;11.10;99.90
20459;DHT22;10388;52.314;7.938;2022-11-15T16:01:46;11.00;99.90
20459;DHT22;10388;52.314;7.938;2022-11-15T16:04:16;11.00;99.90
20459;DHT22;10388;52.314;7.938;2022-11-15T16:06:47;10.90;99.90
20459;DHT22;10388;52.314;7.938;2022-11-15T16:09:20;10.80;99.90
20459;DHT22;10388;52.314;7.938;2022-11-15T16:12:13;10.70;99.90
20459;DHT22;10388;52.314;7.938;2022-11-15T16:14:44;10.70;99.90
20459;DHT22;10388;52.314;7.938;2022-11-15T16:17:18;10.60;99.90
20459;DHT22;10388;52.314;7.938;2022-11-15T16:19:49;10.60;99.90
20459;DHT22;10388;52.314;7.938;2022-11-15T16:22:20;10.60;99.90
20459;DHT22;10388;52.314;7.938;2022-11-15T16:24:50;10.50;99.90
20459;DHT22;10388;52.314;7.938;2022-11-15T16:27:21;10.60;99.90
20459;DHT22;10388;52.314;7.938;2022-11-15T16:29:52;10.60;99.90
20459;DHT22;10388;52.314;7.938;2022-11-15T16:32:23;10.50;99.90
20459;DHT22;10388;52.314;7.938;2022-11-15T16:34:54;10.50;99.90
20459;DHT22;10388;52.314;7.938;2022-11-15T16:37:26;10.50;99.90
20459;DHT22;10388;52.314;7.938;2022-11-15T16:39:56;10.50;99.90
20459;DHT22;10388;52.314;7.938;2022-11-15T16:42:27;10.50;99.90
20459;DHT22;10388;52.314;7.938;2022-11-15T16:44:57;10.50;99.90
20459;DHT22;10388;52.314;7.938;2022-11-15T16:47:28;10.40;99.90
20459;DHT22;10388;52.314;7.938;2022-11-15T16:49:58;10.40;99.90
20459;DHT22;10388;52.314;7.938;2022-11-15T16:52:29;10.40;99.90
20459;DHT22;10388;52.314;7.938;2022-11-15T16:54:59;10.30;99.90
20459;DHT22;10388;52.314;7.938;2022-11-15T16:57:30;10.20;99.90
20459;DHT22;10388;52.314;7.938;2022-11-15T17:00:01;10.10;99.90
20459;DHT22;10388;52.314;7.938;2022-11-15T17:02:31;10.10;99.90
20459;DHT22;10388;52.314;7.938;2022-11-15T17:05:03;10.00;99.90
20459;DHT22;10388;52.314;7.938;2022-11-15T17:07:34;9.90;99.90
20459;DHT22;10388;52.314;7.938;2022-11-15T17:10:05;9.80;99.90
20459;DHT22;10388;52.314;7.938;2022-11-15T17:12:37;9.80;99.90
20459;DHT22;10388;52.314;7.938;2022-11-15T17:15:11;9.70;99.90
20459;DHT22;10388;52.314;7.938;2022-11-15T17:17:42;9.70;99.90
20459;DHT22;10388;52.314;7.938;2022-11-15T17:20:19;9.60;99.90
20459;DHT22;10388;52.314;7.938;2022-11-15T17:22:50;9.60;99.90
20459;DHT22;10388;52.314;7.938;2022-11-15T17:25:22;9.70;99.90
20459;DHT22;10388;52.314;7.938;2022-11-15T17:27:52;9.60;99.90
20459;DHT22;10388;52.314;7.938;2022-11-15T17:30:23;9.60;99.90
20459;DHT22;10388;52.314;7.938;2022-11-15T17:32:53;9.50;99.90
20459;DHT22;10388;52.314;7.938;2022-11-15T17:35:25;9.50;99.90
20459;DHT22;10388;52.314;7.938;2022-11-15T17:37:56;9.50;99.90
20459;DHT22;10388;52.314;7.938;2022-11-15T17:40:26;9.40;99.90
20459;DHT22;10388;52.314;7.938;2022-11-15T17:42:57;9.40;99.90
20459;DHT22;10388;52.314;7.938;2022-11-15T17:45:27;9.40;99.90
20459;DHT22;10388;52.314;7.938;2022-11-15T17:47:58;9.30;99.90
20459;DHT22;10388;52.314;7.938;2022-11-15T17:50:28;9.30;99.90
20459;DHT22;10388;52.314;7.938;2022-11-15T17:52:59;9.30;99.90
20459;DHT22;10388;52.314;7.938;2022-11-15T17:55:31;9.30;99.90
20459;DHT22;10388;52.314;7.938;2022-11-15T17:58:01;9.30;99.90
20459;DHT22;10388;52.314;7.938;2022-11-15T18:00:32;9.40;99.90
20459;DHT22;10388;52.314;7.938;2022-11-15T18:03:03;9.40;99.90
20459;DHT22;10388;52.314;7.938;2022-11-15T18:05:33;9.40;99.90
20459;DHT22;10388;52.314;7.938;2022-11-15T18:08:04;9.40;99.90
20459;DHT22;10388;52.314;7.938;2022-11-15T18:10:34;9.40;99.90
20459;DHT22;10388;52.314;7.938;2022-11-15T18:13:05;9.50;99.90
20459;DHT22;10388;52.314;7.938;2022-11-15T18:15:35;9.60;99.90
20459;DHT22;10388;52.314;7.938;2022-11-15T18:18:06;9.70;99.90
20459;DHT22;10388;52.314;7.938;2022-11-15T18:20:36;9.70;99.90
20459;DHT22;10388;52.314;7.938;2022-11-15T18:23:07;9.80;99.90
20459;DHT22;10388;52.314;7.938;2022-11-15T18:25:38;9.90;99.90
20459;DHT22;10388;52.314;7.938;2022-11-15T18:28:08;10.00;99.90
20459;DHT22;10388;52.314;7.938;2022-11-15T18:30:38;10.20;99.90
20459;DHT22;10388;52.314;7.938;2022-11-15T18:33:10;10.20;99.90
20459;DHT22;10388;52.314;7.938;2022-11-15T18:35:41;10.30;99.90
20459;DHT22;10388;52.314;7.938;2022-11-15T18:38:11;10.40;99.90
20459;DHT22;10388;52.314;7.938;2022-11-15T18:40:42;10.60;99.90
20459;DHT22;10388;52.314;7.938;2022-11-15T18:43:12;10.60;99.90
20459;DHT22;10388;52.314;7.938;2022-11-15T18:45:43;10.90;99.90
20459;DHT22;10388;52.314;7.938;2022-11-15T18:48:13;10.90;99.90
20459;DHT22;10388;52.314;7.938;2022-11-15T18:50:44;10.80;99.90
20459;DHT22;10388;52.314;7.938;2022-11-15T18:53:15;10.90;99.90
20459;DHT22;10388;52.314;7.938;2022-11-15T18:55:45;11.00;99.90
20459;DHT22;10388;52.314;7.938;2022-11-15T18:58:16;11.10;99.90
20459;DHT22;10388;52.314;7.938;2022-11-15T19:00:46;11.10;99.90
20459;DHT22;10388;52.314;7.938;2022-11-15T19:03:17;11.00;99.90